createdAt,value
2023-05-10T00:01:00.749Z,14.13
2023-05-10T00:04:28.336Z,14.16
2023-05-10T00:07:50.199Z,13.95
2023-05-10T00:11:11.893Z,13.85
2023-05-10T00:14:33.813Z,14.13
2023-05-10T00:17:58.740Z,14.24
2023-05-10T00:21:25.207Z,14.01
2023-05-10T00:24:49.226Z,13.98
2023-05-10T00:28:11.078Z,14.03
2023-05-10T00:31:32.703Z,14.06
2023-05-10T00:34:54.288Z,13.92
2023-05-10T00:38:18.496Z,13.98
2023-05-10T00:41:40.135Z,13.92
2023-05-10T00:45:06.701Z,13.81
2023-05-10T00:48:30.379Z,13.87
2023-05-10T00:51:52.932Z,13.58
2023-05-10T00:55:14.678Z,13.33
2023-05-10T00:58:36.689Z,13.69
2023-05-10T01:01:59.205Z,13.61
2023-05-10T01:05:25.724Z,13.61
2023-05-10T01:08:48.745Z,13.30
2023-05-10T01:12:12.616Z,13.36
2023-05-10T01:15:37.897Z,13.03
2023-05-10T01:18:59.852Z,13.09
2023-05-10T01:22:33.617Z,13.14
2023-05-10T01:26:07.453Z,13.31
2023-05-10T01:30:15.677Z,13.59
2023-05-10T01:33:48.744Z,13.44
2023-05-10T01:37:18.477Z,13.75
2023-05-10T01:41:06.593Z,13.68
2023-05-10T01:44:55.750Z,13.75
2023-05-10T01:48:20.437Z,13.74
2023-05-10T01:51:53.182Z,13.45
2023-05-10T01:55:17.694Z,13.40
2023-05-10T01:58:44.993Z,13.36
2023-05-10T02:02:07.934Z,13.53
2023-05-10T02:05:33.249Z,13.59
2023-05-10T02:08:58.306Z,13.76
2023-05-10T02:12:21.515Z,13.82
2023-05-10T02:15:44.271Z,13.78
2023-05-10T02:19:07.092Z,13.86
2023-05-10T02:22:34.671Z,13.74
2023-05-10T02:26:04.817Z,13.87
2023-05-10T02:29:29.804Z,13.89
2023-05-10T02:32:53.377Z,13.85
2023-05-10T02:36:16.240Z,13.87
2023-05-10T02:39:39.480Z,13.85
2023-05-10T02:43:07.511Z,13.86
2023-05-10T02:46:29.312Z,13.86
2023-05-10T02:49:50.962Z,13.58
2023-05-10T02:53:19.905Z,13.66
2023-05-10T02:56:51.671Z,13.65
2023-05-10T03:00:13.548Z,13.65
2023-05-10T03:03:37.445Z,13.59
2023-05-10T03:07:01.945Z,13.78
2023-05-10T03:10:34.445Z,13.38
2023-05-10T03:14:11.173Z,13.21
2023-05-10T03:17:53.706Z,13.23
2023-05-10T03:21:19.078Z,13.34
2023-05-10T03:24:42.239Z,13.37
2023-05-10T03:28:06.015Z,13.33
2023-05-10T03:31:32.382Z,13.48
2023-05-10T03:34:56.238Z,13.55
2023-05-10T03:38:20.129Z,13.65
2023-05-10T03:41:42.507Z,13.75
2023-05-10T03:45:06.819Z,13.68
2023-05-10T03:48:28.491Z,13.74
2023-05-10T03:51:52.281Z,13.90
2023-05-10T03:55:16.096Z,13.95
2023-05-10T03:58:37.701Z,13.93
2023-05-10T04:02:01.405Z,13.89
2023-05-10T04:05:22.987Z,13.61
2023-05-10T04:08:46.904Z,13.66
2023-05-10T04:12:11.066Z,13.65
2023-05-10T04:15:32.783Z,13.75
2023-05-10T04:18:54.515Z,13.90
2023-05-10T04:22:17.288Z,13.89
2023-05-10T04:25:41.248Z,13.87
2023-05-10T04:29:03.503Z,13.95
2023-05-10T04:32:29.144Z,13.90
2023-05-10T04:35:50.835Z,14.06
2023-05-10T04:39:12.411Z,13.95
2023-05-10T04:42:36.357Z,13.95
2023-05-10T04:46:00.415Z,14.03
2023-05-10T04:49:22.777Z,13.86
2023-05-10T04:52:46.601Z,13.82
2023-05-10T04:56:08.530Z,13.76
2023-05-10T04:59:30.166Z,13.96
2023-05-10T05:02:52.664Z,14.08
2023-05-10T05:06:14.382Z,14.05
2023-05-10T05:09:36.088Z,13.95
2023-05-10T05:12:57.828Z,14.12
2023-05-10T05:16:19.475Z,14.22
2023-05-10T05:19:41.110Z,14.45
2023-05-10T05:23:03.079Z,14.70
2023-05-10T05:26:24.695Z,14.78
2023-05-10T05:29:46.309Z,14.81
2023-05-10T05:33:07.977Z,14.70
2023-05-10T05:36:29.721Z,14.92
2023-05-10T05:39:55.424Z,14.91
2023-05-10T05:43:19.513Z,14.72
2023-05-10T05:46:43.287Z,14.72
2023-05-10T05:50:05.636Z,14.98
2023-05-10T05:53:27.453Z,15.22
2023-05-10T05:56:49.083Z,15.37
2023-05-10T06:00:11.333Z,15.19
2023-05-10T06:03:33.686Z,15.23
2023-05-10T06:06:55.325Z,15.18
2023-05-10T06:10:19.651Z,15.64
2023-05-10T06:13:43.934Z,15.53
2023-05-10T06:17:06.158Z,15.53
2023-05-10T06:20:32.442Z,16.02
2023-05-10T06:23:54.418Z,15.83
2023-05-10T06:27:16.127Z,15.73
2023-05-10T06:30:38.030Z,16.05
2023-05-10T06:33:59.645Z,15.12
2023-05-10T06:37:23.580Z,15.49
2023-05-10T06:40:45.185Z,16.12
2023-05-10T06:44:09.511Z,16.22
2023-05-10T06:47:31.106Z,15.88
2023-05-10T06:50:55.099Z,15.64
2023-05-10T06:54:18.908Z,15.66
2023-05-10T06:57:40.528Z,15.90
2023-05-10T07:01:06.385Z,15.81
2023-05-10T07:04:32.826Z,15.83
2023-05-10T07:07:54.384Z,15.53
2023-05-10T07:11:18.233Z,15.74
2023-05-10T07:14:39.806Z,15.75
2023-05-10T07:18:05.606Z,16.09
2023-05-10T07:21:29.912Z,15.94
2023-05-10T07:24:51.904Z,16.34
2023-05-10T07:28:14.780Z,16.13
2023-05-10T07:31:42.962Z,16.94
2023-05-10T07:35:04.860Z,17.39
2023-05-10T07:38:28.888Z,17.76
2023-05-10T07:41:50.524Z,17.10
2023-05-10T07:45:12.106Z,17.24
2023-05-10T07:48:33.665Z,17.65
2023-05-10T07:52:00.165Z,18.08
2023-05-10T07:55:24.356Z,17.66
2023-05-10T07:58:46.152Z,17.63
2023-05-10T08:02:10.398Z,17.62
2023-05-10T08:05:35.787Z,17.39
2023-05-10T08:08:57.583Z,16.94
2023-05-10T08:12:21.426Z,17.22
2023-05-10T08:15:45.259Z,17.90
2023-05-10T08:19:09.106Z,18.18
2023-05-10T08:22:30.756Z,17.91
2023-05-10T08:25:54.624Z,17.17
2023-05-10T08:29:16.592Z,16.85
2023-05-10T08:32:39.073Z,16.91
2023-05-10T08:36:03.745Z,17.00
2023-05-10T08:39:30.519Z,16.95
2023-05-10T08:43:13.744Z,16.71
2023-05-10T08:46:39.808Z,16.74
2023-05-10T08:50:04.705Z,17.40
2023-05-10T08:53:31.529Z,16.91
2023-05-10T08:56:54.300Z,17.29
2023-05-10T09:00:17.479Z,17.67
2023-05-10T09:03:40.199Z,17.96
2023-05-10T09:07:04.345Z,17.86
2023-05-10T09:10:28.183Z,18.03
2023-05-10T09:13:52.642Z,18.13
2023-05-10T09:17:14.635Z,17.86
2023-05-10T09:20:38.664Z,18.15
2023-05-10T09:24:04.373Z,18.65
2023-05-10T09:27:29.335Z,19.07
2023-05-10T09:30:56.560Z,19.18
2023-05-10T09:34:30.099Z,19.53
2023-05-10T09:37:55.974Z,19.38
2023-05-10T09:41:18.790Z,19.26
2023-05-10T09:44:44.469Z,19.14
2023-05-10T09:48:07.077Z,19.21
2023-05-10T09:51:31.168Z,19.87
2023-05-10T09:54:55.989Z,20.12
2023-05-10T09:58:17.613Z,20.55
2023-05-10T10:01:40.064Z,20.44
2023-05-10T10:05:05.305Z,20.67
2023-05-10T10:08:27.190Z,20.36
2023-05-10T10:11:51.400Z,20.47
2023-05-10T10:15:14.647Z,20.45
2023-05-10T10:18:40.973Z,20.65
2023-05-10T10:22:02.628Z,21.10
2023-05-10T10:25:27.069Z,20.85
2023-05-10T10:29:09.890Z,20.98
2023-05-10T10:32:51.345Z,21.32
2023-05-10T10:36:13.786Z,20.92
2023-05-10T10:39:37.771Z,20.03
2023-05-10T10:43:24.105Z,19.64
2023-05-10T10:47:02.423Z,19.53
2023-05-10T10:50:26.577Z,19.03
2023-05-10T10:53:49.184Z,18.79
2023-05-10T10:57:19.087Z,19.23
2023-05-10T11:00:45.549Z,19.27
2023-05-10T11:04:07.194Z,19.23
2023-05-10T11:07:28.849Z,19.21
2023-05-10T11:11:04.304Z,19.17
2023-05-10T11:14:26.575Z,19.41
2023-05-10T11:17:53.106Z,19.32
2023-05-10T11:21:16.420Z,20.14
2023-05-10T11:24:40.710Z,20.98
2023-05-10T11:28:05.524Z,21.10
2023-05-10T11:31:29.909Z,20.92
2023-05-10T11:34:52.076Z,20.39
2023-05-10T11:38:15.282Z,20.12
2023-05-10T11:41:43.702Z,19.89
2023-05-10T11:45:08.343Z,19.74
2023-05-10T11:48:31.097Z,19.69
2023-05-10T11:51:55.143Z,19.43
2023-05-10T11:55:16.843Z,19.82
2023-05-10T11:58:40.081Z,19.85
2023-05-10T12:02:01.910Z,19.76
2023-05-10T12:05:26.067Z,19.59
2023-05-10T12:08:50.953Z,19.65
2023-05-10T12:12:18.729Z,19.45
2023-05-10T12:15:40.439Z,19.32
2023-05-10T12:19:02.240Z,19.20
2023-05-10T12:22:26.635Z,19.20
2023-05-10T12:25:50.759Z,18.92
2023-05-10T12:29:16.682Z,18.86
2023-05-10T12:32:45.073Z,19.24
2023-05-10T12:36:09.267Z,19.38
2023-05-10T12:39:41.422Z,19.48
2023-05-10T12:43:05.511Z,19.43
2023-05-10T12:46:28.794Z,19.58
2023-05-10T12:49:50.571Z,19.68
2023-05-10T12:53:12.431Z,19.81
2023-05-10T12:56:33.987Z,19.93
2023-05-10T12:59:58.952Z,20.03
2023-05-10T13:03:21.041Z,20.27
2023-05-10T13:06:42.639Z,20.54
2023-05-10T13:10:04.559Z,20.37
2023-05-10T13:13:26.320Z,20.33
2023-05-10T13:16:48.412Z,19.89
2023-05-10T13:20:13.266Z,19.83
2023-05-10T13:23:35.492Z,20.20
2023-05-10T13:26:59.369Z,20.63
2023-05-10T13:30:24.853Z,20.98
2023-05-10T13:33:48.975Z,21.18
2023-05-10T13:37:12.876Z,21.12
2023-05-10T13:40:35.118Z,21.02
2023-05-10T13:43:59.515Z,20.84
2023-05-10T13:47:24.204Z,20.58
2023-05-10T13:50:46.060Z,20.48
2023-05-10T13:54:11.958Z,20.51
2023-05-10T13:57:37.958Z,20.67
2023-05-10T14:00:59.569Z,20.65
2023-05-10T14:04:21.398Z,20.50
2023-05-10T14:07:43.003Z,20.05
2023-05-10T14:11:04.665Z,20.16
2023-05-10T14:14:26.968Z,20.36
2023-05-10T14:17:48.978Z,20.36
2023-05-10T14:21:10.690Z,20.43
2023-05-10T14:24:32.574Z,20.51
2023-05-10T14:27:55.712Z,20.40
2023-05-10T14:31:18.084Z,20.37
2023-05-10T14:34:40.119Z,20.40
2023-05-10T14:38:04.366Z,20.37
2023-05-10T14:41:25.986Z,20.50
2023-05-10T14:44:47.561Z,20.51
2023-05-10T14:48:12.276Z,20.31
2023-05-10T14:51:33.977Z,20.06
2023-05-10T14:54:55.824Z,19.85
2023-05-10T14:58:17.620Z,19.69
2023-05-10T15:01:42.304Z,19.62
2023-05-10T15:05:04.681Z,19.66
2023-05-10T15:08:26.795Z,19.66
2023-05-10T15:11:48.384Z,19.53
2023-05-10T15:15:12.458Z,19.62
2023-05-10T15:18:36.546Z,19.78
2023-05-10T15:22:00.550Z,19.92
2023-05-10T15:25:22.381Z,19.83
2023-05-10T15:28:46.471Z,19.74
2023-05-10T15:32:08.138Z,19.59
2023-05-10T15:35:32.898Z,19.64
2023-05-10T15:38:57.207Z,19.48
2023-05-10T15:42:18.822Z,19.44
2023-05-10T15:45:40.514Z,19.41
2023-05-10T15:49:04.864Z,19.48
2023-05-10T15:52:26.641Z,19.48
2023-05-10T15:55:50.772Z,19.39
2023-05-10T15:59:14.580Z,19.13
2023-05-10T16:02:36.557Z,19.21
2023-05-10T16:05:58.271Z,19.23
2023-05-10T16:09:19.902Z,19.30
2023-05-10T16:12:47.183Z,19.24
2023-05-10T16:16:09.363Z,19.27
2023-05-10T16:19:31.280Z,19.24
2023-05-10T16:22:55.821Z,19.16
2023-05-10T16:26:17.511Z,19.02
2023-05-10T16:29:39.176Z,19.04
2023-05-10T16:33:04.021Z,18.95
2023-05-10T16:36:31.698Z,18.93
2023-05-10T16:39:55.761Z,19.00
2023-05-10T16:43:17.491Z,18.97
2023-05-10T16:46:39.216Z,18.97
2023-05-10T16:50:02.353Z,18.90
2023-05-10T16:53:23.989Z,18.79
2023-05-10T16:56:45.670Z,18.80
2023-05-10T17:00:08.543Z,18.73
2023-05-10T17:03:32.730Z,18.72
2023-05-10T17:06:54.397Z,18.61
2023-05-10T17:10:16.707Z,18.56
2023-05-10T17:13:38.905Z,18.65
2023-05-10T17:17:00.630Z,18.53
2023-05-10T17:20:22.344Z,18.48
2023-05-10T17:23:43.944Z,18.41
2023-05-10T17:27:05.612Z,18.38
2023-05-10T17:30:28.849Z,18.44
2023-05-10T17:33:50.490Z,18.37
2023-05-10T17:37:12.585Z,18.28
2023-05-10T17:40:40.064Z,18.20
2023-05-10T17:44:01.858Z,18.27
2023-05-10T17:47:23.499Z,18.18
2023-05-10T17:50:49.302Z,18.11
2023-05-10T17:54:13.003Z,18.03
2023-05-10T17:57:38.127Z,18.05
2023-05-10T18:00:59.764Z,18.03
2023-05-10T18:04:26.452Z,17.97
2023-05-10T18:07:48.096Z,17.98
2023-05-10T18:11:09.766Z,17.98
2023-05-10T18:14:40.496Z,17.86
2023-05-10T18:18:04.996Z,17.79
2023-05-10T18:21:31.380Z,17.77
2023-05-10T18:24:53.287Z,17.79
2023-05-10T18:28:14.906Z,17.69
2023-05-10T18:31:40.111Z,17.62
2023-05-10T18:35:01.852Z,17.59
2023-05-10T18:38:26.191Z,17.55
2023-05-10T18:41:47.858Z,17.43
2023-05-10T18:45:14.265Z,17.62
2023-05-10T18:48:38.740Z,17.87
2023-05-10T18:52:02.839Z,18.21
2023-05-10T18:55:27.896Z,18.27
2023-05-10T18:58:49.774Z,18.20
2023-05-10T19:02:11.624Z,18.14
2023-05-10T19:05:33.323Z,18.28
2023-05-10T19:08:54.922Z,18.24
2023-05-10T19:12:16.535Z,18.69
2023-05-10T19:15:38.209Z,19.26
2023-05-10T19:19:02.556Z,19.61
2023-05-10T19:22:36.145Z,19.58
2023-05-10T19:26:06.360Z,19.16
2023-05-10T19:29:30.512Z,19.13
2023-05-10T19:32:52.428Z,18.73
2023-05-10T19:36:14.240Z,18.45
2023-05-10T19:39:36.013Z,18.24
2023-05-10T19:42:57.676Z,18.07
2023-05-10T19:46:20.234Z,17.77
2023-05-10T19:49:44.634Z,17.62
2023-05-10T19:53:11.050Z,17.52
2023-05-10T19:56:35.161Z,17.39
2023-05-10T19:59:56.778Z,17.90
2023-05-10T20:03:18.676Z,18.40
2023-05-10T20:06:40.399Z,18.69
2023-05-10T20:10:05.087Z,18.92
2023-05-10T20:13:26.672Z,18.99
2023-05-10T20:16:48.552Z,19.09
2023-05-10T20:20:11.222Z,18.88
2023-05-10T20:23:38.151Z,18.88
2023-05-10T20:27:02.769Z,19.02
2023-05-10T20:30:27.386Z,18.76
2023-05-10T20:33:53.793Z,18.75
2023-05-10T20:37:17.698Z,18.90
2023-05-10T20:40:42.091Z,18.95
2023-05-10T20:44:05.526Z,18.69
2023-05-10T20:47:27.316Z,18.68
2023-05-10T20:50:49.052Z,18.61
2023-05-10T20:54:11.064Z,18.59
2023-05-10T20:57:32.662Z,18.61
2023-05-10T21:00:54.431Z,18.49
2023-05-10T21:04:16.058Z,18.44
2023-05-10T21:07:37.897Z,18.62
2023-05-10T21:11:05.643Z,18.53
2023-05-10T21:14:30.104Z,18.22
2023-05-10T21:17:56.817Z,18.35
2023-05-10T21:21:20.757Z,18.47
2023-05-10T21:24:44.792Z,18.27
2023-05-10T21:28:06.442Z,17.90
2023-05-10T21:31:30.563Z,17.66
2023-05-10T21:34:56.697Z,17.34
2023-05-10T21:38:18.297Z,17.22
2023-05-10T21:41:40.011Z,17.22
2023-05-10T21:45:01.624Z,17.10
2023-05-10T21:48:23.221Z,17.04
2023-05-10T21:51:47.340Z,16.97
2023-05-10T21:55:12.378Z,16.90
2023-05-10T21:58:38.904Z,16.79
2023-05-10T22:02:00.718Z,16.74
2023-05-10T22:05:22.423Z,16.66
2023-05-10T22:08:44.093Z,16.61
2023-05-10T22:12:08.013Z,16.57
2023-05-10T22:15:33.568Z,16.60
2023-05-10T22:18:56.561Z,16.56
2023-05-10T22:22:18.235Z,16.43
2023-05-10T22:25:39.808Z,16.46
2023-05-10T22:29:04.243Z,16.29
2023-05-10T22:32:28.385Z,16.18
2023-05-10T22:35:50.130Z,16.12
2023-05-10T22:39:11.723Z,16.25
2023-05-10T22:42:33.773Z,16.16
2023-05-10T22:45:55.354Z,16.05
2023-05-10T22:49:19.151Z,15.95
2023-05-10T22:52:40.700Z,16.01
2023-05-10T22:56:02.587Z,16.05
2023-05-10T22:59:24.277Z,16.12
2023-05-10T23:02:45.905Z,16.05
2023-05-10T23:06:07.612Z,15.97
2023-05-10T23:09:29.206Z,16.09
2023-05-10T23:12:53.398Z,15.98
2023-05-10T23:16:15.028Z,15.85
2023-05-10T23:19:36.603Z,15.84
2023-05-10T23:23:00.611Z,15.78
2023-05-10T23:26:22.244Z,15.68
2023-05-10T23:29:52.330Z,15.75
2023-05-10T23:33:18.466Z,15.66
2023-05-10T23:36:40.049Z,15.64
2023-05-10T23:40:02.030Z,15.57
2023-05-10T23:43:25.487Z,15.56
2023-05-10T23:46:47.203Z,15.74
2023-05-10T23:50:09.334Z,15.66
2023-05-10T23:53:31.127Z,15.63
2023-05-10T23:56:55.184Z,15.63
